createdAt,value
2018-08-17T00:00:02.279Z,92.50
2018-08-17T00:02:30.653Z,92.70
2018-08-17T00:04:59.063Z,92.70
2018-08-17T00:07:27.435Z,92.60
2018-08-17T00:09:55.837Z,92.80
2018-08-17T00:12:24.232Z,92.80
2018-08-17T00:14:52.656Z,92.40
2018-08-17T00:17:21.023Z,92.80
2018-08-17T00:19:49.450Z,92.80
2018-08-17T00:22:17.857Z,92.90
2018-08-17T00:24:46.322Z,93.00
2018-08-17T00:27:14.731Z,93.50
2018-08-17T00:29:44.114Z,93.60
2018-08-17T00:32:12.478Z,93.80
2018-08-17T00:34:40.868Z,94.00
2018-08-17T00:37:09.245Z,93.80
2018-08-17T00:39:37.673Z,93.30
2018-08-17T00:42:06.110Z,93.90
2018-08-17T00:44:35.036Z,94.10
2018-08-17T00:47:03.522Z,94.30
2018-08-17T00:49:31.999Z,93.80
2018-08-17T00:52:00.463Z,93.60
2018-08-17T00:54:28.994Z,92.90
2018-08-17T00:56:57.446Z,93.20
2018-08-17T00:59:25.918Z,92.40
2018-08-17T01:01:54.341Z,92.00
2018-08-17T01:04:22.877Z,91.80
2018-08-17T01:06:51.941Z,91.40
2018-08-17T01:09:20.330Z,91.20
2018-08-17T01:11:48.865Z,91.20
2018-08-17T01:14:17.294Z,91.80
2018-08-17T01:16:45.764Z,92.00
2018-08-17T01:19:14.788Z,92.00
2018-08-17T01:21:43.159Z,92.10
2018-08-17T01:24:11.547Z,92.70
2018-08-17T01:26:39.921Z,93.80
2018-08-17T01:29:08.281Z,94.60
2018-08-17T01:31:36.703Z,95.30
2018-08-17T01:34:05.130Z,95.70
2018-08-17T01:36:33.565Z,95.70
2018-08-17T01:39:01.970Z,96.10
2018-08-17T01:41:30.385Z,96.50
2018-08-17T01:43:58.724Z,96.80
2018-08-17T01:46:27.118Z,96.60
2018-08-17T01:48:55.602Z,96.70
2018-08-17T01:51:24.092Z,97.60
2018-08-17T01:53:52.457Z,98.00
2018-08-17T01:56:20.977Z,98.40
2018-08-17T01:58:49.945Z,98.10
2018-08-17T02:01:18.745Z,98.50
2018-08-17T02:03:47.241Z,98.90
2018-08-17T02:06:15.589Z,99.30
2018-08-17T02:08:44.468Z,99.50
2018-08-17T02:11:12.847Z,99.30
2018-08-17T02:13:41.217Z,99.20
2018-08-17T02:16:09.647Z,98.50
2018-08-17T02:18:38.039Z,99.60
2018-08-17T02:21:06.514Z,99.20
2018-08-17T02:23:34.893Z,99.40
2018-08-17T02:26:04.063Z,99.30
2018-08-17T02:28:32.462Z,99.90
2018-08-17T02:31:00.918Z,99.90
2018-08-17T02:33:29.309Z,99.90
2018-08-17T02:35:57.738Z,99.90
2018-08-17T02:38:26.097Z,99.90
2018-08-17T02:40:54.539Z,99.90
2018-08-17T02:43:22.967Z,99.90
2018-08-17T02:45:51.344Z,99.90
2018-08-17T02:48:19.709Z,99.90
2018-08-17T02:50:48.970Z,99.40
2018-08-17T02:53:17.406Z,99.90
2018-08-17T02:55:45.821Z,99.90
2018-08-17T02:58:14.214Z,99.90
2018-08-17T03:00:42.669Z,99.70
2018-08-17T03:03:11.062Z,99.90
2018-08-17T03:05:39.410Z,99.90
2018-08-17T03:08:08.605Z,99.90
2018-08-17T03:10:36.974Z,99.90
2018-08-17T03:13:05.367Z,99.50
2018-08-17T03:15:33.813Z,99.40
2018-08-17T03:18:02.191Z,99.50
2018-08-17T03:20:30.594Z,99.60
2018-08-17T03:22:58.981Z,99.90
2018-08-17T03:25:27.426Z,99.90
2018-08-17T03:27:55.841Z,99.90
2018-08-17T03:30:24.205Z,99.90
2018-08-17T03:32:52.616Z,99.80
2018-08-17T03:35:20.954Z,99.70
2018-08-17T03:37:49.364Z,99.90
2018-08-17T03:40:18.394Z,99.60
2018-08-17T03:42:46.773Z,98.70
2018-08-17T03:45:15.197Z,99.70
2018-08-17T03:47:43.572Z,99.90
2018-08-17T03:50:12.045Z,99.90
2018-08-17T03:52:40.525Z,99.90
2018-08-17T03:55:08.930Z,99.90
2018-08-17T03:57:37.298Z,99.90
2018-08-17T04:00:06.347Z,99.90
2018-08-17T04:02:34.736Z,99.90
2018-08-17T04:05:03.172Z,99.90
2018-08-17T04:07:31.568Z,99.90
2018-08-17T04:09:59.965Z,99.90
2018-08-17T04:12:28.360Z,99.90
2018-08-17T04:14:56.754Z,99.90
2018-08-17T04:17:25.141Z,99.90
2018-08-17T04:19:53.546Z,99.90
2018-08-17T04:22:22.000Z,99.90
2018-08-17T04:24:50.394Z,99.90
2018-08-17T04:27:18.802Z,99.90
2018-08-17T04:29:47.265Z,99.90
2018-08-17T04:32:15.642Z,99.90
2018-08-17T04:34:44.060Z,99.90
2018-08-17T04:37:12.488Z,99.90
2018-08-17T04:39:40.888Z,99.90
2018-08-17T04:42:09.319Z,99.90
2018-08-17T04:44:37.672Z,99.90
2018-08-17T04:47:06.050Z,99.90
2018-08-17T04:49:34.460Z,99.90
2018-08-17T04:52:02.941Z,99.90
2018-08-17T04:54:31.940Z,99.90
2018-08-17T04:57:00.985Z,99.90
2018-08-17T04:59:29.477Z,99.90
2018-08-17T05:01:57.876Z,99.90
2018-08-17T05:04:26.255Z,99.90
2018-08-17T05:06:54.667Z,99.90
2018-08-17T05:09:23.083Z,99.90
2018-08-17T05:11:51.495Z,99.90
2018-08-17T05:14:19.886Z,99.90
2018-08-17T05:16:48.254Z,99.90
2018-08-17T05:19:17.296Z,99.90
2018-08-17T05:21:46.406Z,99.90
2018-08-17T05:24:15.692Z,99.90
2018-08-17T05:26:45.405Z,99.90
2018-08-17T05:29:13.801Z,99.90
2018-08-17T05:31:42.473Z,99.90
2018-08-17T05:34:11.173Z,99.90
2018-08-17T05:36:39.534Z,99.90
2018-08-17T05:39:08.982Z,99.90
2018-08-17T05:41:37.534Z,99.90
2018-08-17T05:44:06.317Z,99.90
2018-08-17T05:46:34.676Z,99.90
2018-08-17T05:49:03.597Z,99.90
2018-08-17T05:51:32.005Z,99.90
2018-08-17T05:54:00.417Z,99.90
2018-08-17T05:56:28.808Z,99.90
2018-08-17T05:58:57.187Z,99.90
2018-08-17T06:01:25.638Z,99.90
2018-08-17T06:03:54.078Z,99.90
2018-08-17T06:06:22.626Z,99.90
2018-08-17T06:08:51.818Z,99.90
2018-08-17T06:11:20.496Z,99.90
2018-08-17T06:13:48.693Z,99.90
2018-08-17T06:16:17.154Z,99.90
2018-08-17T06:18:45.501Z,99.90
2018-08-17T06:21:14.118Z,99.90
2018-08-17T06:23:42.557Z,99.90
2018-08-17T06:26:11.146Z,99.90
2018-08-17T06:28:39.780Z,99.90
2018-08-17T06:31:08.274Z,99.90
2018-08-17T06:33:36.669Z,99.90
2018-08-17T06:36:06.981Z,99.90
2018-08-17T06:38:35.427Z,99.80
2018-08-17T06:41:03.965Z,99.90
2018-08-17T06:43:32.461Z,99.70
2018-08-17T06:46:01.002Z,99.50
2018-08-17T06:48:29.432Z,99.80
2018-08-17T06:50:58.096Z,99.90
2018-08-17T06:53:26.532Z,99.80
2018-08-17T06:55:54.994Z,99.80
2018-08-17T06:58:23.324Z,99.90
2018-08-17T07:00:51.840Z,99.90
2018-08-17T07:03:20.304Z,99.90
2018-08-17T07:05:48.734Z,99.90
2018-08-17T07:08:17.204Z,99.80
2018-08-17T07:10:45.646Z,99.20
2018-08-17T07:13:14.135Z,98.90
2018-08-17T07:15:42.523Z,98.60
2018-08-17T07:18:10.963Z,99.90
2018-08-17T07:20:39.456Z,99.80
2018-08-17T07:23:07.926Z,98.70
2018-08-17T07:25:37.330Z,99.30
2018-08-17T07:28:05.779Z,99.10
2018-08-17T07:30:34.213Z,99.40
2018-08-17T07:33:02.642Z,99.90
2018-08-17T07:35:31.106Z,99.90
2018-08-17T07:37:59.592Z,98.90
2018-08-17T07:40:27.982Z,98.50
2018-08-17T07:42:56.361Z,99.70
2018-08-17T07:45:24.778Z,98.20
2018-08-17T07:47:53.268Z,96.10
2018-08-17T07:50:22.043Z,96.60
2018-08-17T07:52:50.578Z,96.00
2018-08-17T07:55:19.878Z,95.30
2018-08-17T07:57:48.288Z,94.50
2018-08-17T08:00:16.704Z,95.10
2018-08-17T08:02:45.375Z,93.70
2018-08-17T08:05:13.786Z,94.50
2018-08-17T08:07:42.250Z,94.00
2018-08-17T08:10:11.594Z,93.30
2018-08-17T08:12:40.292Z,93.20
2018-08-17T08:15:09.016Z,94.30
2018-08-17T08:17:38.082Z,93.90
2018-08-17T08:20:17.706Z,94.00
2018-08-17T08:22:46.178Z,94.00
2018-08-17T08:25:14.630Z,95.10
2018-08-17T08:27:43.024Z,95.30
2018-08-17T08:30:11.520Z,94.70
2018-08-17T08:32:40.025Z,93.20
2018-08-17T08:35:09.957Z,92.60
2018-08-17T08:37:38.866Z,92.00
2018-08-17T08:40:07.383Z,93.10
2018-08-17T08:42:35.785Z,90.50
2018-08-17T08:45:04.293Z,90.60
2018-08-17T08:47:32.722Z,90.80
2018-08-17T08:50:01.133Z,90.10
2018-08-17T08:52:29.515Z,86.50
2018-08-17T08:54:57.935Z,82.90
2018-08-17T08:57:26.382Z,83.10
2018-08-17T08:59:54.925Z,83.40
2018-08-17T09:02:23.306Z,78.80
2018-08-17T09:04:51.789Z,82.20
2018-08-17T09:07:20.269Z,80.40
2018-08-17T09:09:48.686Z,79.90
2018-08-17T09:12:17.089Z,77.10
2018-08-17T09:14:45.590Z,72.30
2018-08-17T09:17:13.999Z,71.70
2018-08-17T09:19:42.367Z,71.60
2018-08-17T09:22:10.777Z,68.90
2018-08-17T09:24:39.166Z,69.20
2018-08-17T09:27:07.614Z,72.50
2018-08-17T09:29:36.063Z,67.50
2018-08-17T09:32:04.522Z,67.10
2018-08-17T09:34:32.993Z,65.40
2018-08-17T09:37:01.385Z,66.30
2018-08-17T09:39:29.753Z,65.30
2018-08-17T09:41:58.382Z,63.40
2018-08-17T09:44:27.053Z,62.80
2018-08-17T09:46:56.258Z,64.00
2018-08-17T09:49:24.809Z,64.00
2018-08-17T09:51:53.194Z,62.80
2018-08-17T09:54:21.605Z,62.20
2018-08-17T09:56:49.983Z,60.40
2018-08-17T09:59:18.412Z,59.50
2018-08-17T10:01:52.168Z,58.50
2018-08-17T10:04:25.759Z,58.80
2018-08-17T10:07:00.017Z,58.20
2018-08-17T10:09:35.085Z,59.40
2018-08-17T10:12:08.181Z,57.20
2018-08-17T10:14:37.400Z,55.60
2018-08-17T10:17:05.891Z,59.10
2018-08-17T10:19:34.274Z,59.20
2018-08-17T10:22:03.597Z,54.60
2018-08-17T10:24:31.800Z,57.40
2018-08-17T10:27:00.153Z,54.50
2018-08-17T10:29:28.676Z,54.80
2018-08-17T10:31:57.134Z,56.10
2018-08-17T10:34:25.557Z,55.90
2018-08-17T10:36:54.026Z,53.60
2018-08-17T10:39:22.520Z,54.00
2018-08-17T10:41:50.889Z,50.70
2018-08-17T10:44:19.288Z,48.50
2018-08-17T10:46:47.876Z,48.20
2018-08-17T10:49:18.329Z,46.40
2018-08-17T10:51:46.713Z,46.40
2018-08-17T10:54:15.197Z,48.00
2018-08-17T10:56:43.654Z,49.80
2018-08-17T10:59:12.317Z,51.80
2018-08-17T11:01:43.897Z,51.20
2018-08-17T11:04:12.296Z,49.50
2018-08-17T11:06:41.281Z,48.40
2018-08-17T11:09:10.857Z,45.60
2018-08-17T11:11:40.638Z,46.20
2018-08-17T11:14:09.337Z,48.30
2018-08-17T11:16:38.435Z,47.00
2018-08-17T11:19:06.837Z,48.50
2018-08-17T11:21:35.264Z,50.20
2018-08-17T11:24:03.801Z,48.80
2018-08-17T11:26:32.416Z,46.70
2018-08-17T11:29:01.502Z,45.40
2018-08-17T11:31:30.065Z,45.10
2018-08-17T11:33:58.477Z,46.30
2018-08-17T11:36:26.890Z,44.70
2018-08-17T11:38:55.345Z,44.50
2018-08-17T11:41:23.861Z,45.70
2018-08-17T11:43:52.942Z,45.50
2018-08-17T11:46:21.346Z,46.10
2018-08-17T11:48:49.742Z,43.20
2018-08-17T11:51:18.112Z,41.10
2018-08-17T11:53:46.977Z,43.70
2018-08-17T11:56:15.410Z,42.80
2018-08-17T11:58:43.804Z,42.00
2018-08-17T12:01:17.658Z,43.00
2018-08-17T12:03:46.061Z,43.40
2018-08-17T12:06:14.509Z,42.40
2018-08-17T12:08:42.993Z,42.90
2018-08-17T12:11:11.677Z,42.20
2018-08-17T12:13:40.349Z,43.10
2018-08-17T12:16:11.473Z,42.60
2018-08-17T12:18:39.944Z,42.60
2018-08-17T12:21:08.442Z,41.70
2018-08-17T12:23:36.818Z,40.90
2018-08-17T12:26:05.228Z,44.40
2018-08-17T12:28:33.704Z,44.70
2018-08-17T12:31:02.169Z,45.30
2018-08-17T12:33:30.967Z,46.00
2018-08-17T12:35:59.483Z,47.00
2018-08-17T12:38:27.868Z,43.40
2018-08-17T12:40:57.159Z,42.20
2018-08-17T12:43:29.026Z,43.80
2018-08-17T12:45:57.440Z,41.00
2018-08-17T12:48:26.638Z,45.40
2018-08-17T12:50:59.301Z,43.10
2018-08-17T12:53:27.776Z,42.00
2018-08-17T12:56:09.765Z,41.80
2018-08-17T12:58:38.233Z,41.50
2018-08-17T13:01:06.692Z,42.00
2018-08-17T13:03:35.146Z,41.30
2018-08-17T13:06:03.631Z,40.70
2018-08-17T13:08:32.055Z,40.90
2018-08-17T13:11:00.762Z,40.40
2018-08-17T13:13:29.334Z,39.90
2018-08-17T13:16:03.193Z,40.60
2018-08-17T13:18:33.928Z,41.10
2018-08-17T13:21:02.470Z,44.20
2018-08-17T13:23:30.832Z,43.80
2018-08-17T13:25:59.245Z,43.00
2018-08-17T13:28:27.582Z,45.40
2018-08-17T13:30:56.001Z,45.10
2018-08-17T13:33:24.642Z,45.30
2018-08-17T13:35:53.077Z,47.30
2018-08-17T13:38:21.494Z,48.70
2018-08-17T13:40:49.887Z,48.40
2018-08-17T13:43:18.292Z,48.90
2018-08-17T13:45:47.536Z,49.00
2018-08-17T13:48:15.962Z,47.80
2018-08-17T13:50:44.387Z,48.00
2018-08-17T13:53:12.904Z,47.50
2018-08-17T13:55:41.277Z,49.20
2018-08-17T13:58:09.898Z,49.90
2018-08-17T14:00:38.378Z,50.40
2018-08-17T14:03:06.923Z,48.10
2018-08-17T14:05:35.361Z,48.80
2018-08-17T14:08:03.857Z,48.20
2018-08-17T14:10:32.319Z,47.90
2018-08-17T14:13:01.169Z,48.10
2018-08-17T14:15:29.532Z,48.30
2018-08-17T14:17:58.509Z,48.70
2018-08-17T14:20:26.891Z,49.10
2018-08-17T14:22:55.370Z,49.30
2018-08-17T14:25:23.865Z,48.50
2018-08-17T14:27:52.498Z,48.60
2018-08-17T14:30:20.894Z,49.70
2018-08-17T14:32:49.306Z,49.10
2018-08-17T14:35:17.797Z,48.80
2018-08-17T14:37:46.225Z,49.30
2018-08-17T14:40:14.661Z,48.40
2018-08-17T14:42:43.419Z,49.30
2018-08-17T14:45:12.282Z,49.70
2018-08-17T14:47:40.873Z,51.50
2018-08-17T14:50:12.934Z,50.00
2018-08-17T14:52:41.751Z,51.20
2018-08-17T14:55:10.929Z,52.80
2018-08-17T14:57:39.366Z,52.30
2018-08-17T15:00:10.761Z,52.10
2018-08-17T15:02:39.200Z,51.80
2018-08-17T15:05:09.339Z,47.70
2018-08-17T15:07:37.890Z,47.00
2018-08-17T15:10:07.358Z,48.90
2018-08-17T15:12:35.775Z,49.40
2018-08-17T15:15:04.327Z,50.60
2018-08-17T15:17:32.737Z,50.80
2018-08-17T15:20:01.080Z,51.90
2018-08-17T15:22:29.505Z,51.90
2018-08-17T15:24:57.909Z,50.50
2018-08-17T15:27:26.322Z,51.80
2018-08-17T15:29:54.841Z,49.90
2018-08-17T15:32:23.309Z,51.30
2018-08-17T15:34:51.831Z,52.30
2018-08-17T15:37:20.572Z,49.70
2018-08-17T15:39:48.950Z,51.50
2018-08-17T15:42:17.361Z,52.30
2018-08-17T15:44:46.537Z,50.50
2018-08-17T15:47:15.065Z,51.60
2018-08-17T15:49:57.109Z,50.50
2018-08-17T15:52:25.558Z,49.50
2018-08-17T15:54:54.499Z,48.90
2018-08-17T15:57:23.484Z,49.60
2018-08-17T15:59:51.949Z,49.80
2018-08-17T16:02:20.382Z,51.00
2018-08-17T16:04:48.832Z,51.20
2018-08-17T16:07:17.144Z,51.90
2018-08-17T16:09:45.516Z,53.10
2018-08-17T16:12:14.042Z,53.50
2018-08-17T16:14:42.404Z,52.30
2018-08-17T16:17:10.874Z,53.10
2018-08-17T16:19:39.279Z,53.70
2018-08-17T16:22:07.718Z,52.90
2018-08-17T16:24:36.365Z,53.90
2018-08-17T16:27:04.961Z,54.10
2018-08-17T16:29:33.412Z,51.30
2018-08-17T16:32:01.954Z,55.10
2018-08-17T16:34:30.332Z,51.40
2018-08-17T16:36:58.977Z,53.20
2018-08-17T16:39:27.463Z,51.80
2018-08-17T16:41:55.909Z,51.50
2018-08-17T16:44:24.314Z,52.30
2018-08-17T16:46:52.753Z,53.10
2018-08-17T16:49:21.141Z,52.20
2018-08-17T16:51:50.246Z,52.30
2018-08-17T16:54:18.604Z,52.10
2018-08-17T16:56:47.006Z,52.30
2018-08-17T16:59:15.586Z,51.90
2018-08-17T17:01:43.978Z,52.40
2018-08-17T17:04:12.409Z,52.20
2018-08-17T17:06:40.819Z,51.80
2018-08-17T17:09:09.234Z,52.60
2018-08-17T17:11:37.676Z,52.70
2018-08-17T17:14:06.091Z,53.70
2018-08-17T17:16:46.528Z,54.60
2018-08-17T17:19:17.795Z,52.60
2018-08-17T17:21:47.199Z,52.70
2018-08-17T17:24:15.914Z,53.30
2018-08-17T17:26:44.508Z,54.00
2018-08-17T17:29:13.033Z,52.80
2018-08-17T17:31:42.325Z,52.30
2018-08-17T17:34:11.244Z,54.00
2018-08-17T17:36:39.789Z,53.30
2018-08-17T17:39:10.509Z,54.80
2018-08-17T17:41:38.934Z,55.20
2018-08-17T17:44:07.683Z,53.70
2018-08-17T17:46:36.235Z,55.00
2018-08-17T17:49:04.683Z,54.20
2018-08-17T17:51:33.362Z,54.70
2018-08-17T17:54:01.988Z,54.10
2018-08-17T17:56:30.480Z,54.70
2018-08-17T17:59:04.298Z,54.60
2018-08-17T18:01:32.803Z,55.30
2018-08-17T18:04:01.294Z,54.90
2018-08-17T18:06:29.862Z,54.80
2018-08-17T18:09:00.230Z,55.50
2018-08-17T18:11:28.794Z,55.20
2018-08-17T18:13:58.026Z,55.00
2018-08-17T18:16:26.429Z,55.80
2018-08-17T18:18:54.774Z,55.70
2018-08-17T18:21:28.475Z,56.20
2018-08-17T18:24:01.937Z,56.70
2018-08-17T18:26:30.386Z,57.00
2018-08-17T18:28:58.780Z,57.40
2018-08-17T18:31:27.361Z,56.80
2018-08-17T18:33:55.837Z,57.00
2018-08-17T18:36:24.256Z,59.00
2018-08-17T18:38:52.883Z,60.40
2018-08-17T18:41:21.314Z,60.20
2018-08-17T18:43:49.841Z,60.30
2018-08-17T18:46:18.637Z,60.00
2018-08-17T18:48:47.041Z,59.70
2018-08-17T18:51:16.853Z,58.70
2018-08-17T18:53:45.243Z,59.30
2018-08-17T18:56:13.703Z,59.20
2018-08-17T18:58:42.117Z,60.90
2018-08-17T19:01:10.482Z,59.70
2018-08-17T19:03:39.098Z,61.10
2018-08-17T19:06:07.530Z,60.00
2018-08-17T19:08:35.941Z,61.20
2018-08-17T19:11:04.370Z,61.30
2018-08-17T19:13:32.943Z,63.00
2018-08-17T19:16:01.608Z,62.50
2018-08-17T19:18:32.100Z,64.30
2018-08-17T19:21:08.046Z,63.60
2018-08-17T19:23:36.918Z,65.40
2018-08-17T19:26:05.625Z,65.30
2018-08-17T19:28:34.647Z,66.50
2018-08-17T19:31:04.325Z,68.40
2018-08-17T19:33:32.801Z,67.50
2018-08-17T19:36:02.624Z,67.90
2018-08-17T19:38:39.149Z,67.90
2018-08-17T19:41:08.268Z,70.00
2018-08-17T19:43:36.977Z,69.90
2018-08-17T19:46:05.986Z,71.20
2018-08-17T19:48:34.581Z,70.30
2018-08-17T19:51:07.330Z,70.80
2018-08-17T19:53:35.957Z,71.00
2018-08-17T19:56:04.700Z,71.50
2018-08-17T19:58:33.075Z,71.60
2018-08-17T20:01:01.988Z,72.80
2018-08-17T20:03:30.394Z,73.50
2018-08-17T20:05:59.283Z,74.60
2018-08-17T20:08:27.759Z,73.00
2018-08-17T20:10:56.172Z,73.80
2018-08-17T20:13:24.926Z,74.20
2018-08-17T20:15:54.298Z,74.90
2018-08-17T20:18:22.752Z,76.00
2018-08-17T20:20:51.149Z,76.10
2018-08-17T20:23:20.956Z,75.50
2018-08-17T20:25:49.452Z,75.90
2018-08-17T20:28:17.845Z,75.90
2018-08-17T20:30:46.362Z,76.40
2018-08-17T20:33:20.141Z,75.80
2018-08-17T20:35:48.978Z,77.10
2018-08-17T20:38:17.418Z,77.20
2018-08-17T20:40:45.900Z,75.40
2018-08-17T20:43:14.267Z,77.70
2018-08-17T20:45:42.933Z,77.30
2018-08-17T20:48:11.989Z,78.00
2018-08-17T20:50:40.425Z,77.30
2018-08-17T20:53:09.035Z,78.20
2018-08-17T20:55:37.424Z,79.00
2018-08-17T20:58:06.108Z,79.50
2018-08-17T21:00:34.659Z,79.00
2018-08-17T21:03:03.105Z,77.70
2018-08-17T21:05:32.426Z,80.30
2018-08-17T21:08:00.793Z,80.40
2018-08-17T21:10:29.162Z,80.80
2018-08-17T21:12:57.553Z,81.30
2018-08-17T21:15:26.085Z,81.00
2018-08-17T21:17:54.426Z,81.50
2018-08-17T21:20:22.876Z,82.50
2018-08-17T21:22:51.349Z,82.60
2018-08-17T21:25:19.740Z,82.70
2018-08-17T21:27:49.889Z,82.90
2018-08-17T21:30:18.791Z,82.50
2018-08-17T21:32:47.475Z,83.00
2018-08-17T21:35:15.865Z,82.40
2018-08-17T21:37:44.255Z,82.00
2018-08-17T21:40:18.675Z,81.80
2018-08-17T21:42:47.599Z,81.90
2018-08-17T21:45:16.500Z,82.80
2018-08-17T21:47:45.066Z,84.50
2018-08-17T21:50:14.493Z,83.80
2018-08-17T21:52:43.573Z,84.40
2018-08-17T21:55:12.143Z,84.30
2018-08-17T21:57:40.524Z,83.80
2018-08-17T22:00:20.021Z,83.40
2018-08-17T22:02:48.619Z,83.70
2018-08-17T22:05:22.939Z,83.70
2018-08-17T22:07:51.385Z,83.40
2018-08-17T22:10:19.820Z,83.70
2018-08-17T22:12:48.201Z,84.40
2018-08-17T22:15:16.686Z,84.80
2018-08-17T22:17:45.073Z,85.10
2018-08-17T22:20:13.460Z,85.60
2018-08-17T22:22:43.982Z,85.90
2018-08-17T22:25:14.337Z,86.80
2018-08-17T22:27:42.769Z,87.40
2018-08-17T22:30:17.632Z,87.50
2018-08-17T22:32:48.550Z,87.30
2018-08-17T22:35:17.136Z,86.90
2018-08-17T22:37:46.160Z,87.30
2018-08-17T22:40:16.827Z,87.20
2018-08-17T22:42:47.140Z,87.80
2018-08-17T22:45:15.556Z,87.90
2018-08-17T22:47:43.990Z,88.20
2018-08-17T22:50:14.948Z,88.00
2018-08-17T22:52:43.358Z,88.10
2018-08-17T22:55:11.774Z,88.10
2018-08-17T22:57:40.174Z,88.40
2018-08-17T23:00:24.867Z,88.80
2018-08-17T23:02:54.669Z,89.00
2018-08-17T23:05:26.287Z,89.50
2018-08-17T23:07:55.495Z,89.50
2018-08-17T23:10:24.989Z,89.40
2018-08-17T23:12:56.040Z,89.10
2018-08-17T23:15:25.867Z,88.90
2018-08-17T23:18:00.728Z,88.30
2018-08-17T23:20:34.564Z,88.90
2018-08-17T23:23:03.853Z,89.30
2018-08-17T23:25:32.810Z,89.00
2018-08-17T23:28:01.264Z,89.40
2018-08-17T23:30:29.708Z,89.30
2018-08-17T23:32:58.464Z,89.40
2018-08-17T23:35:26.813Z,89.10
2018-08-17T23:37:55.217Z,89.30
2018-08-17T23:40:23.656Z,89.10
2018-08-17T23:42:52.081Z,90.00
2018-08-17T23:45:20.485Z,89.40
2018-08-17T23:47:48.845Z,89.70
2018-08-17T23:50:17.941Z,89.20
2018-08-17T23:52:46.434Z,89.30
2018-08-17T23:55:16.527Z,89.50
2018-08-17T23:57:45.031Z,89.90
